createdAt,value
2022-11-28T00:01:23.830Z,15.90
2022-11-28T00:03:51.016Z,17.25
2022-11-28T00:06:18.634Z,18.70
2022-11-28T00:08:45.835Z,16.13
2022-11-28T00:11:13.796Z,16.10
2022-11-28T00:13:41.289Z,20.85
2022-11-28T00:16:09.275Z,17.20
2022-11-28T00:18:36.836Z,17.00
2022-11-28T00:21:05.855Z,18.17
2022-11-28T00:23:33.499Z,17.08
2022-11-28T00:26:01.494Z,19.13
2022-11-28T00:28:29.047Z,16.17
2022-11-28T00:30:56.259Z,14.43
2022-11-28T00:33:23.522Z,15.50
2022-11-28T00:35:50.667Z,15.95
2022-11-28T00:38:17.915Z,15.85
2022-11-28T00:40:45.141Z,13.88
2022-11-28T00:43:12.971Z,14.95
2022-11-28T00:45:40.147Z,15.85
2022-11-28T00:48:07.341Z,15.73
2022-11-28T00:50:34.515Z,14.48
2022-11-28T00:53:01.644Z,14.57
2022-11-28T00:55:28.742Z,15.00
2022-11-28T00:57:56.071Z,14.63
2022-11-28T01:00:23.361Z,16.05
2022-11-28T01:02:50.755Z,14.02
2022-11-28T01:05:17.982Z,15.68
2022-11-28T01:07:45.172Z,16.88
2022-11-28T01:10:12.536Z,13.90
2022-11-28T01:12:39.859Z,16.30
2022-11-28T01:15:08.623Z,14.05
2022-11-28T01:17:35.744Z,15.38
2022-11-28T01:20:03.189Z,16.27
2022-11-28T01:22:30.327Z,16.30
2022-11-28T01:24:57.474Z,16.60
2022-11-28T01:27:24.607Z,16.67
2022-11-28T01:29:51.771Z,16.58
2022-11-28T01:32:19.047Z,18.30
2022-11-28T01:34:46.210Z,17.20
2022-11-28T01:37:13.324Z,15.65
2022-11-28T01:39:40.515Z,14.48
2022-11-28T01:42:07.711Z,15.95
2022-11-28T01:44:34.845Z,15.10
2022-11-28T01:47:02.073Z,16.90
2022-11-28T01:49:38.709Z,15.95
2022-11-28T01:52:08.345Z,17.70
2022-11-28T01:54:36.176Z,17.80
2022-11-28T01:57:05.579Z,16.23
2022-11-28T01:59:36.523Z,17.45
2022-11-28T02:02:09.591Z,15.45
2022-11-28T02:04:37.016Z,16.58
2022-11-28T02:07:04.180Z,16.15
2022-11-28T02:09:31.299Z,17.48
2022-11-28T02:12:15.745Z,16.02
2022-11-28T02:15:01.439Z,16.42
2022-11-28T02:17:31.635Z,16.35
2022-11-28T02:19:58.844Z,16.05
2022-11-28T02:22:32.919Z,15.40
2022-11-28T02:25:06.183Z,15.68
2022-11-28T02:27:46.819Z,16.15
2022-11-28T02:30:19.795Z,14.32
2022-11-28T02:32:46.954Z,15.18
2022-11-28T02:35:26.226Z,15.50
2022-11-28T02:37:56.157Z,15.38
2022-11-28T02:40:25.859Z,19.10
2022-11-28T02:43:17.677Z,15.38
2022-11-28T02:45:52.652Z,17.35
2022-11-28T02:48:29.015Z,17.58
2022-11-28T02:51:16.380Z,16.08
2022-11-28T02:53:45.755Z,16.85
2022-11-28T02:56:13.561Z,19.52
2022-11-28T02:58:40.749Z,17.98
2022-11-28T03:01:13.406Z,16.92
2022-11-28T03:03:43.340Z,17.67
2022-11-28T03:06:17.775Z,17.08
2022-11-28T03:09:03.887Z,20.85
2022-11-28T03:11:49.943Z,17.17
2022-11-28T03:14:17.048Z,18.88
2022-11-28T03:16:51.099Z,18.65
2022-11-28T03:19:21.447Z,20.00
2022-11-28T03:21:54.399Z,17.50
2022-11-28T03:24:27.685Z,18.90
2022-11-28T03:26:57.507Z,17.33
2022-11-28T03:29:37.791Z,18.38
2022-11-28T03:32:07.633Z,19.73
2022-11-28T03:34:38.539Z,18.13
2022-11-28T03:37:09.405Z,16.80
2022-11-28T03:39:41.530Z,17.88
2022-11-28T03:42:11.867Z,16.73
2022-11-28T03:44:50.517Z,19.30
2022-11-28T03:47:17.671Z,18.52
2022-11-28T03:49:55.306Z,21.02
2022-11-28T03:52:48.751Z,18.60
2022-11-28T03:55:18.955Z,19.23
2022-11-28T03:57:50.003Z,20.70
2022-11-28T04:00:17.255Z,19.02
2022-11-28T04:02:53.373Z,20.48
2022-11-28T04:05:28.522Z,19.58
2022-11-28T04:08:00.138Z,21.45
2022-11-28T04:10:35.773Z,21.23
2022-11-28T04:13:21.455Z,20.05
2022-11-28T04:15:58.135Z,20.00
2022-11-28T04:18:25.306Z,22.92
2022-11-28T04:21:02.922Z,20.33
2022-11-28T04:23:30.732Z,21.83
2022-11-28T04:26:01.304Z,19.75
2022-11-28T04:28:30.645Z,19.92
2022-11-28T04:30:59.429Z,18.42
2022-11-28T04:33:27.834Z,22.13
2022-11-28T04:35:56.708Z,21.10
2022-11-28T04:38:25.319Z,21.08
2022-11-28T04:41:11.446Z,25.77
2022-11-28T04:43:41.323Z,28.17
2022-11-28T04:46:11.434Z,23.75
2022-11-28T04:48:38.749Z,25.98
2022-11-28T04:51:21.341Z,24.60
2022-11-28T04:53:51.266Z,24.60
2022-11-28T04:56:22.187Z,19.65
2022-11-28T04:58:50.149Z,22.50
2022-11-28T05:01:19.778Z,19.95
2022-11-28T05:03:47.028Z,22.00
2022-11-28T05:06:23.349Z,23.33
2022-11-28T05:08:50.699Z,20.65
2022-11-28T05:11:17.835Z,19.15
2022-11-28T05:13:45.070Z,23.95
2022-11-28T05:16:15.872Z,20.95
2022-11-28T05:18:43.225Z,22.05
2022-11-28T05:21:10.709Z,18.63
2022-11-28T05:23:38.656Z,21.23
2022-11-28T05:26:09.949Z,25.63
2022-11-28T05:28:37.235Z,21.80
2022-11-28T05:31:04.888Z,23.13
2022-11-28T05:33:33.237Z,19.58
2022-11-28T05:36:11.386Z,18.75
2022-11-28T05:38:40.204Z,18.45
2022-11-28T05:41:07.355Z,20.08
2022-11-28T05:43:34.543Z,18.50
2022-11-28T05:46:01.746Z,18.83
2022-11-28T05:48:29.083Z,18.45
2022-11-28T05:50:56.260Z,17.95
2022-11-28T05:53:23.418Z,16.05
2022-11-28T05:55:50.563Z,16.17
2022-11-28T05:58:17.687Z,15.48
2022-11-28T06:00:44.848Z,15.90
2022-11-28T06:03:11.956Z,14.35
2022-11-28T06:05:43.156Z,16.13
2022-11-28T06:08:12.337Z,17.35
2022-11-28T06:10:42.455Z,15.40
2022-11-28T06:13:09.602Z,14.30
2022-11-28T06:15:38.533Z,16.17
2022-11-28T06:18:06.080Z,17.15
2022-11-28T06:20:35.759Z,16.85
2022-11-28T06:23:02.921Z,16.52
2022-11-28T06:25:30.071Z,18.42
2022-11-28T06:27:57.195Z,17.65
2022-11-28T06:30:24.351Z,23.45
2022-11-28T06:32:51.500Z,18.75
2022-11-28T06:35:18.635Z,18.92
2022-11-28T06:37:45.816Z,16.92
2022-11-28T06:40:13.070Z,20.30
2022-11-28T06:42:40.199Z,18.23
2022-11-28T06:45:07.728Z,15.60
2022-11-28T06:47:34.846Z,17.17
2022-11-28T06:50:02.025Z,16.65
2022-11-28T06:52:29.146Z,18.45
2022-11-28T06:54:56.281Z,17.80
2022-11-28T06:57:23.813Z,17.58
2022-11-28T06:59:50.941Z,17.92
2022-11-28T07:02:18.175Z,17.35
2022-11-28T07:04:45.357Z,20.83
2022-11-28T07:07:16.314Z,18.65
2022-11-28T07:09:44.334Z,17.10
2022-11-28T07:12:11.631Z,18.60
2022-11-28T07:14:38.830Z,16.85
2022-11-28T07:17:06.165Z,15.60
2022-11-28T07:19:33.320Z,15.95
2022-11-28T07:22:00.730Z,17.48
2022-11-28T07:24:27.900Z,19.10
2022-11-28T07:26:55.041Z,18.33
2022-11-28T07:29:22.937Z,18.40
2022-11-28T07:31:50.197Z,19.33
2022-11-28T07:34:17.528Z,17.50
2022-11-28T07:36:44.665Z,19.63
2022-11-28T07:39:14.147Z,16.95
2022-11-28T07:41:41.321Z,16.40
2022-11-28T07:44:08.432Z,15.65
2022-11-28T07:46:35.589Z,18.48
2022-11-28T07:49:04.291Z,16.90
2022-11-28T07:51:32.657Z,14.20
2022-11-28T07:54:00.738Z,13.38
2022-11-28T07:56:50.115Z,19.48
2022-11-28T07:59:17.258Z,15.00
2022-11-28T08:01:44.530Z,15.70
2022-11-28T08:04:11.761Z,17.90
2022-11-28T08:06:40.427Z,16.35
2022-11-28T08:09:07.831Z,17.63
2022-11-28T08:11:35.185Z,17.30
2022-11-28T08:14:02.383Z,17.85
2022-11-28T08:16:30.059Z,17.23
2022-11-28T08:18:58.079Z,21.48
2022-11-28T08:21:29.087Z,19.00
2022-11-28T08:23:58.757Z,18.00
2022-11-28T08:26:30.345Z,16.95
2022-11-28T08:28:58.428Z,16.48
2022-11-28T08:31:27.687Z,18.27
2022-11-28T08:33:56.234Z,16.40
2022-11-28T08:36:23.401Z,15.25
2022-11-28T08:39:03.859Z,15.95
2022-11-28T08:41:37.749Z,15.10
2022-11-28T08:44:04.977Z,19.08
2022-11-28T08:46:32.607Z,17.55
2022-11-28T08:49:04.245Z,16.40
2022-11-28T08:51:31.814Z,14.07
2022-11-28T08:53:59.745Z,16.80
2022-11-28T08:56:27.505Z,15.30
2022-11-28T08:58:55.100Z,14.05
2022-11-28T09:01:23.554Z,14.32
2022-11-28T09:03:51.171Z,15.15
2022-11-28T09:06:18.952Z,14.40
2022-11-28T09:08:46.351Z,14.63
2022-11-28T09:11:15.178Z,14.48
2022-11-28T09:13:42.760Z,15.93
2022-11-28T09:16:09.887Z,12.68
2022-11-28T09:18:37.367Z,16.27
2022-11-28T09:21:09.390Z,14.13
2022-11-28T09:23:37.580Z,15.20
2022-11-28T09:26:11.401Z,14.13
2022-11-28T09:28:38.589Z,14.25
2022-11-28T09:31:06.633Z,13.00
2022-11-28T09:33:34.040Z,12.48
2022-11-28T09:36:04.985Z,11.73
2022-11-28T09:38:32.166Z,9.90
2022-11-28T09:40:59.350Z,12.70
2022-11-28T09:43:37.192Z,14.60
2022-11-28T09:46:10.730Z,12.82
2022-11-28T09:48:40.765Z,13.00
2022-11-28T09:51:22.698Z,14.80
2022-11-28T09:53:56.003Z,11.65
2022-11-28T09:56:23.230Z,12.63
2022-11-28T09:58:58.985Z,12.50
2022-11-28T10:01:46.702Z,15.43
2022-11-28T10:04:22.562Z,11.18
2022-11-28T10:06:53.827Z,13.65
2022-11-28T10:09:24.058Z,16.42
2022-11-28T10:11:57.153Z,14.18
2022-11-28T10:14:33.259Z,10.95
2022-11-28T10:17:16.912Z,13.82
2022-11-28T10:19:55.888Z,12.70
2022-11-28T10:22:30.372Z,10.82
2022-11-28T10:25:01.364Z,10.02
2022-11-28T10:27:33.720Z,11.05
2022-11-28T10:30:04.055Z,10.52
2022-11-28T10:32:40.526Z,11.82
2022-11-28T10:35:11.442Z,10.25
2022-11-28T10:37:39.551Z,11.15
2022-11-28T10:40:17.636Z,14.10
2022-11-28T10:42:47.771Z,9.80
2022-11-28T10:45:14.946Z,12.63
2022-11-28T10:47:51.406Z,12.27
2022-11-28T10:50:32.552Z,10.30
2022-11-28T10:53:03.311Z,9.60
2022-11-28T10:55:30.400Z,11.18
2022-11-28T10:58:00.408Z,9.88
2022-11-28T11:00:27.515Z,9.57
2022-11-28T11:02:58.668Z,10.60
2022-11-28T11:05:27.457Z,9.70
2022-11-28T11:07:54.847Z,10.40
2022-11-28T11:10:22.264Z,10.73
2022-11-28T11:12:52.089Z,9.13
2022-11-28T11:15:24.477Z,8.95
2022-11-28T11:17:51.937Z,10.07
2022-11-28T11:20:33.743Z,11.35
2022-11-28T11:23:13.862Z,10.20
2022-11-28T11:25:49.144Z,11.95
2022-11-28T11:28:27.221Z,11.23
2022-11-28T11:31:01.957Z,10.65
2022-11-28T11:33:36.581Z,9.23
2022-11-28T11:36:05.406Z,9.25
2022-11-28T11:38:37.930Z,9.15
2022-11-28T11:41:27.412Z,10.63
2022-11-28T11:43:54.640Z,10.07
2022-11-28T11:46:21.874Z,11.35
2022-11-28T11:48:52.601Z,10.75
2022-11-28T11:51:22.816Z,9.38
2022-11-28T11:53:49.957Z,7.28
2022-11-28T11:56:17.360Z,10.00
2022-11-28T11:58:47.278Z,11.75
2022-11-28T12:01:16.229Z,9.40
2022-11-28T12:03:53.721Z,10.32
2022-11-28T12:06:26.683Z,12.70
2022-11-28T12:08:55.424Z,9.30
2022-11-28T12:11:22.555Z,14.05
2022-11-28T12:13:50.652Z,9.10
2022-11-28T12:16:29.906Z,12.38
2022-11-28T12:18:57.127Z,11.45
2022-11-28T12:21:31.521Z,10.60
2022-11-28T12:24:08.706Z,12.60
2022-11-28T12:26:45.086Z,10.60
2022-11-28T12:32:14.899Z,12.13
2022-11-28T12:34:44.773Z,8.95
2022-11-28T12:37:14.711Z,9.98
2022-11-28T12:40:00.679Z,10.48
2022-11-28T12:42:51.151Z,11.57
2022-11-28T12:45:33.416Z,12.70
2022-11-28T12:48:00.559Z,10.60
2022-11-28T12:50:34.027Z,10.80
2022-11-28T12:53:01.149Z,9.77
2022-11-28T12:55:35.376Z,8.98
2022-11-28T12:58:06.716Z,9.80
2022-11-28T13:00:34.258Z,13.77
2022-11-28T13:03:13.825Z,10.70
2022-11-28T13:05:43.798Z,11.18
2022-11-28T13:08:30.029Z,12.23
2022-11-28T13:11:03.468Z,11.57
2022-11-28T13:13:32.605Z,9.02
2022-11-28T13:16:23.618Z,14.02
2022-11-28T13:18:59.701Z,12.20
2022-11-28T13:21:29.664Z,17.73
2022-11-28T13:23:59.818Z,13.35
2022-11-28T13:26:38.614Z,14.82
2022-11-28T13:29:08.588Z,18.25
2022-11-28T13:32:00.427Z,18.25
2022-11-28T13:34:29.464Z,15.10
2022-11-28T13:39:52.854Z,14.07
2022-11-28T13:45:26.587Z,12.68
2022-11-28T13:47:58.462Z,13.95
2022-11-28T13:50:25.752Z,23.00
2022-11-28T13:53:03.015Z,15.30
2022-11-28T13:55:46.904Z,15.65
2022-11-28T13:58:17.362Z,12.40
2022-11-28T14:00:59.096Z,15.20
2022-11-28T14:03:26.613Z,15.13
2022-11-28T14:06:01.520Z,14.95
2022-11-28T14:08:32.970Z,14.20
2022-11-28T14:11:12.148Z,11.05
2022-11-28T14:13:50.292Z,11.88
2022-11-28T14:16:20.296Z,12.27
2022-11-28T14:19:06.796Z,11.77
2022-11-28T14:21:33.923Z,12.02
2022-11-28T14:24:10.300Z,12.65
2022-11-28T14:26:39.504Z,10.25
2022-11-28T14:29:08.120Z,11.80
2022-11-28T14:31:37.724Z,13.20
2022-11-28T14:34:11.582Z,14.50
2022-11-28T14:36:41.933Z,13.45
2022-11-28T14:39:13.719Z,11.93
2022-11-28T14:41:59.781Z,12.75
2022-11-28T14:44:46.282Z,12.38
2022-11-28T14:47:22.674Z,13.88
2022-11-28T14:49:49.996Z,11.48
2022-11-28T14:52:37.694Z,8.25
2022-11-28T14:55:06.507Z,9.57
2022-11-28T14:57:36.009Z,10.57
2022-11-28T15:00:15.158Z,9.43
2022-11-28T15:02:47.512Z,8.25
2022-11-28T15:05:14.699Z,7.85
2022-11-28T15:07:57.049Z,8.20
2022-11-28T15:10:27.588Z,9.60
2022-11-28T15:13:00.930Z,8.90
2022-11-28T15:15:28.096Z,11.93
2022-11-28T15:17:55.590Z,8.52
2022-11-28T15:20:42.458Z,9.65
2022-11-28T15:23:26.510Z,15.18
2022-11-28T15:25:55.199Z,10.43
2022-11-28T15:28:23.716Z,11.55
2022-11-28T15:30:52.037Z,10.13
2022-11-28T15:33:19.615Z,9.18
2022-11-28T15:36:10.885Z,9.80
2022-11-28T15:38:38.386Z,7.43
2022-11-28T15:41:05.565Z,9.23
2022-11-28T15:43:32.816Z,9.30
2022-11-28T15:46:01.595Z,7.35
2022-11-28T15:48:28.685Z,7.10
2022-11-28T15:50:56.145Z,10.98
2022-11-28T15:53:23.363Z,18.73
2022-11-28T15:56:11.242Z,18.23
2022-11-28T15:58:38.772Z,8.95
2022-11-28T16:01:11.408Z,11.30
2022-11-28T16:03:50.738Z,10.50
2022-11-28T16:06:18.948Z,8.75
2022-11-28T16:08:54.928Z,12.18
2022-11-28T16:11:23.663Z,9.73
2022-11-28T16:13:51.648Z,14.35
2022-11-28T16:16:20.279Z,7.13
2022-11-28T16:18:51.000Z,9.20
2022-11-28T16:21:18.185Z,10.55
2022-11-28T16:23:45.322Z,8.07
2022-11-28T16:26:30.485Z,7.60
2022-11-28T16:29:02.254Z,7.53
2022-11-28T16:31:29.963Z,8.93
2022-11-28T16:33:57.316Z,11.15
2022-11-28T16:36:26.178Z,11.75
2022-11-28T16:38:54.924Z,10.43
2022-11-28T16:41:24.970Z,14.05
2022-11-28T16:44:11.777Z,11.38
2022-11-28T16:46:49.707Z,10.70
2022-11-28T16:49:32.074Z,10.13
2022-11-28T16:52:17.804Z,12.25
2022-11-28T16:54:44.944Z,9.80
2022-11-28T16:57:14.699Z,13.43
2022-11-28T16:59:43.033Z,10.88
2022-11-28T17:02:15.532Z,12.00
2022-11-28T17:04:42.766Z,12.82
2022-11-28T17:07:14.603Z,14.02
2022-11-28T17:09:42.510Z,14.75
2022-11-28T17:12:27.478Z,13.32
2022-11-28T17:14:55.286Z,14.93
2022-11-28T17:17:26.532Z,14.65
2022-11-28T17:19:53.677Z,15.32
2022-11-28T17:22:22.348Z,15.35
2022-11-28T17:24:50.450Z,13.93
2022-11-28T17:27:18.986Z,14.65
2022-11-28T17:29:46.391Z,13.77
2022-11-28T17:32:14.667Z,13.23
2022-11-28T17:34:42.626Z,17.88
2022-11-28T17:37:10.720Z,15.43
2022-11-28T17:39:38.019Z,16.83
2022-11-28T17:42:05.700Z,16.10
2022-11-28T17:44:34.453Z,15.48
2022-11-28T17:47:02.229Z,17.40
2022-11-28T17:49:29.505Z,14.52
2022-11-28T17:51:57.025Z,15.18
2022-11-28T17:54:24.985Z,15.43
2022-11-28T17:56:52.727Z,12.65
2022-11-28T17:59:20.896Z,11.98
2022-11-28T18:01:48.646Z,13.55
2022-11-28T18:04:15.895Z,13.18
2022-11-28T18:06:44.456Z,12.23
2022-11-28T18:09:12.478Z,13.77
2022-11-28T18:11:39.996Z,14.70
2022-11-28T18:14:07.193Z,12.88
2022-11-28T18:16:36.196Z,14.50
2022-11-28T18:19:03.742Z,11.18
2022-11-28T18:21:30.950Z,14.57
2022-11-28T18:23:58.135Z,11.88
2022-11-28T18:26:26.293Z,16.33
2022-11-28T18:28:53.796Z,12.98
2022-11-28T18:31:25.254Z,14.45
2022-11-28T18:33:55.175Z,15.18
2022-11-28T18:36:27.422Z,15.20
2022-11-28T18:38:55.550Z,14.50
2022-11-28T18:41:22.691Z,13.40
2022-11-28T18:43:49.825Z,14.80
2022-11-28T18:46:21.498Z,14.32
2022-11-28T18:48:48.877Z,11.75
2022-11-28T18:51:17.502Z,12.18
2022-11-28T18:53:45.037Z,11.90
2022-11-28T18:56:13.001Z,14.40
2022-11-28T18:58:41.288Z,13.48
2022-11-28T19:01:12.816Z,13.55
2022-11-28T19:03:40.309Z,15.15
2022-11-28T19:06:08.442Z,16.55
2022-11-28T19:08:35.591Z,14.40
2022-11-28T19:11:09.393Z,15.25
2022-11-28T19:13:40.390Z,15.18
2022-11-28T19:16:08.795Z,15.18
2022-11-28T19:18:36.481Z,15.40
2022-11-28T19:21:07.536Z,15.00
2022-11-28T19:23:34.835Z,13.77
2022-11-28T19:26:03.723Z,16.13
2022-11-28T19:28:30.837Z,16.73
2022-11-28T19:31:05.330Z,15.93
2022-11-28T19:33:32.469Z,16.65
2022-11-28T19:36:06.943Z,17.38
2022-11-28T19:38:34.419Z,18.25
2022-11-28T19:41:12.295Z,16.15
2022-11-28T19:43:39.555Z,17.65
2022-11-28T19:46:07.100Z,17.42
2022-11-28T19:48:35.232Z,14.13
2022-11-28T19:51:03.733Z,16.55
2022-11-28T19:53:31.383Z,15.40
2022-11-28T19:56:03.188Z,13.88
2022-11-28T19:58:31.564Z,16.77
2022-11-28T20:01:10.010Z,15.48
2022-11-28T20:03:37.774Z,17.70
2022-11-28T20:06:09.302Z,15.15
2022-11-28T20:08:36.836Z,18.58
2022-11-28T20:11:07.711Z,17.13
2022-11-28T20:13:34.859Z,15.75
2022-11-28T20:16:05.505Z,14.85
2022-11-28T20:18:33.126Z,17.50
2022-11-28T20:21:04.781Z,18.63
2022-11-28T20:23:31.945Z,16.50
2022-11-28T20:26:06.081Z,15.48
2022-11-28T20:28:34.361Z,14.33
2022-11-28T20:31:01.712Z,18.10
2022-11-28T20:33:29.152Z,18.45
2022-11-28T20:36:09.413Z,14.55
2022-11-28T20:38:36.887Z,16.38
2022-11-28T20:41:05.136Z,18.98
2022-11-28T20:43:32.898Z,18.25
2022-11-28T20:46:07.571Z,16.63
2022-11-28T20:48:35.014Z,18.08
2022-11-28T20:51:02.118Z,17.10
2022-11-28T20:53:29.351Z,18.67
2022-11-28T20:56:00.491Z,15.02
2022-11-28T20:58:27.695Z,16.08
2022-11-28T21:00:54.980Z,16.48
2022-11-28T21:03:22.175Z,18.55
2022-11-28T21:05:49.297Z,17.63
2022-11-28T21:08:16.708Z,17.45
2022-11-28T21:10:43.870Z,17.17
2022-11-28T21:13:11.478Z,17.08
2022-11-28T21:15:42.618Z,16.52
2022-11-28T21:18:09.845Z,16.92
2022-11-28T21:20:42.878Z,16.05
2022-11-28T21:23:10.898Z,17.55
2022-11-28T21:25:38.720Z,15.57
2022-11-28T21:28:05.897Z,16.52
2022-11-28T21:30:33.446Z,17.40
2022-11-28T21:33:00.567Z,14.20
2022-11-28T21:35:27.758Z,19.23
2022-11-28T21:37:55.155Z,16.70
2022-11-28T21:40:22.269Z,16.33
2022-11-28T21:42:49.413Z,18.48
2022-11-28T21:45:16.509Z,16.48
2022-11-28T21:47:43.710Z,14.88
2022-11-28T21:50:11.181Z,12.93
2022-11-28T21:52:38.314Z,16.67
2022-11-28T21:55:05.626Z,14.75
2022-11-28T21:57:32.718Z,16.17
2022-11-28T21:59:59.897Z,15.50
2022-11-28T22:02:30.787Z,22.60
2022-11-28T22:04:59.232Z,16.35
2022-11-28T22:07:26.421Z,14.70
2022-11-28T22:09:54.188Z,14.57
2022-11-28T22:12:21.356Z,16.15
2022-11-28T22:14:48.743Z,15.90
2022-11-28T22:17:16.113Z,17.08
2022-11-28T22:19:43.229Z,16.20
2022-11-28T22:22:10.430Z,17.73
2022-11-28T22:24:37.591Z,17.05
2022-11-28T22:27:04.774Z,18.67
2022-11-28T22:29:31.971Z,21.17
2022-11-28T22:31:59.537Z,19.20
2022-11-28T22:34:26.795Z,18.58
2022-11-28T22:36:53.933Z,22.88
2022-11-28T22:39:21.055Z,20.15
2022-11-28T22:41:48.177Z,20.58
2022-11-28T22:44:15.374Z,21.67
2022-11-28T22:46:42.521Z,22.67
2022-11-28T22:49:10.142Z,19.00
2022-11-28T22:51:37.444Z,19.63
2022-11-28T22:54:04.993Z,17.38
2022-11-28T22:56:33.227Z,18.50
2022-11-28T22:59:01.143Z,16.48
2022-11-28T23:01:29.907Z,21.48
2022-11-28T23:03:57.107Z,18.60
2022-11-28T23:06:25.717Z,20.27
2022-11-28T23:08:53.363Z,18.48
2022-11-28T23:11:22.494Z,18.85
2022-11-28T23:13:49.945Z,18.92
2022-11-28T23:16:18.338Z,16.33
2022-11-28T23:18:46.592Z,15.88
2022-11-28T23:21:14.270Z,17.23
2022-11-28T23:23:41.595Z,16.88
2022-11-28T23:26:10.472Z,16.60
2022-11-28T23:28:37.725Z,17.25
2022-11-28T23:31:06.061Z,17.38
2022-11-28T23:33:33.511Z,15.65
2022-11-28T23:36:00.861Z,14.48
2022-11-28T23:38:28.018Z,14.63
2022-11-28T23:40:56.577Z,14.85
2022-11-28T23:43:23.726Z,17.58
2022-11-28T23:45:50.927Z,12.50
2022-11-28T23:48:18.481Z,18.10
2022-11-28T23:50:45.606Z,14.30
2022-11-28T23:53:12.742Z,16.48
2022-11-28T23:55:40.045Z,13.60
2022-11-28T23:58:07.180Z,12.35
